Time;durP1;ratioP1;P1;durP2;ratioP2;P2;SDS_P1;SDS_P2;PMS_P1;PMS_P2;Temp;Humidity;BMP_temperature;BMP_pressure;BME280_temperature;BME280_humidity;BME280_pressure;Samples;Min_cycle;Max_cycle;Signal;HPM_P1;HPM_P2
2022/05/28 00:00:39;;;;;;;2.75;2.38;;;12.10;78.00;;;;;;5018922;28;20026;-77
2022/05/28 00:03:05;;;;;;;3.08;2.40;;;12.10;78.20;;;;;;5013968;28;20026;-77
2022/05/28 00:05:32;;;;;;;3.50;2.75;;;12.10;78.30;;;;;;5014058;28;20029;-78
2022/05/28 00:07:57;;;;;;;4.72;2.50;;;12.00;78.10;;;;;;4997478;28;20057;-77
2022/05/28 00:10:23;;;;;;;4.72;2.70;;;12.00;78.20;;;;;;5014191;28;20132;-77
2022/05/28 00:12:49;;;;;;;3.67;2.53;;;11.90;79.10;;;;;;5014128;28;20041;-77
2022/05/28 00:15:16;;;;;;;3.85;2.60;;;11.90;80.20;;;;;;5014288;28;20026;-78
2022/05/28 00:17:42;;;;;;;5.18;2.60;;;11.90;79.90;;;;;;5013276;28;20018;-77
2022/05/28 00:20:08;;;;;;;6.75;2.63;;;11.90;79.70;;;;;;5013297;28;20478;-78
2022/05/28 00:22:43;;;;;;;4.40;2.22;;;11.90;79.30;;;;;;5013345;28;20022;-82
2022/05/28 00:25:11;;;;;;;5.03;2.40;;;11.90;79.50;;;;;;5013536;28;20026;-78
2022/05/28 00:27:37;;;;;;;8.45;3.15;;;11.90;79.40;;;;;;5013023;28;20441;-77
2022/05/28 00:30:04;;;;;;;5.55;2.92;;;11.80;80.00;;;;;;5013375;28;20085;-77
2022/05/28 00:32:29;;;;;;;6.00;2.65;;;11.80;79.60;;;;;;5013394;28;20036;-77
2022/05/28 00:34:56;;;;;;;8.43;2.42;;;11.70;79.60;;;;;;5012524;28;20501;-77
2022/05/28 00:37:23;;;;;;;3.35;2.67;;;11.70;80.70;;;;;;5013325;28;20474;-78
2022/05/28 00:39:49;;;;;;;4.22;2.42;;;11.70;79.80;;;;;;5013094;28;20053;-77
2022/05/28 00:42:14;;;;;;;3.58;2.60;;;11.70;79.70;;;;;;5013149;28;20074;-76
2022/05/28 00:44:40;;;;;;;4.30;2.55;;;11.80;79.70;;;;;;5013156;28;20026;-76
2022/05/28 00:47:06;;;;;;;3.50;2.40;;;11.80;79.80;;;;;;5012806;28;20545;-76
2022/05/28 00:49:32;;;;;;;2.90;2.60;;;11.80;79.90;;;;;;5013368;28;20034;-77
2022/05/28 00:52:00;;;;;;;3.88;2.60;;;11.90;79.80;;;;;;5013169;28;20034;-77
2022/05/28 00:54:45;;;;;;;4.55;2.72;;;11.90;79.60;;;;;;5013009;28;20018;-76
2022/05/28 00:57:12;;;;;;;3.70;2.50;;;11.90;79.70;;;;;;5013002;28;20109;-77
2022/05/28 00:59:38;;;;;;;2.60;2.38;;;11.90;79.80;;;;;;5012510;28;20034;-77
2022/05/28 01:02:39;;;;;;;2.85;2.55;;;11.90;79.80;;;;;;5012926;28;20076;-77
2022/05/28 01:05:17;;;;;;;3.72;2.38;;;11.90;79.70;;;;;;5012758;28;20026;-77
2022/05/28 01:07:57;;;;;;;4.13;2.63;;;11.80;79.50;;;;;;5012736;28;20025;-77
2022/05/28 01:10:40;;;;;;;6.20;2.88;;;11.80;79.90;;;;;;5012472;28;20486;-77
2022/05/28 01:13:24;;;;;;;4.25;2.80;;;11.80;79.80;;;;;;5012685;28;20026;-77
2022/05/28 01:16:04;;;;;;;2.97;2.30;;;11.90;79.90;;;;;;5012267;28;20029;-77
2022/05/28 01:18:37;;;;;;;3.55;2.40;;;11.90;79.70;;;;;;5012273;28;20108;-78
2022/05/28 01:21:10;;;;;;;4.88;2.58;;;12.00;79.60;;;;;;5012292;28;20193;-78
2022/05/28 01:24:30;;;;;;;3.88;2.70;;;12.00;79.50;;;;;;4996715;28;20117;-78
2022/05/28 01:27:04;;;;;;;4.50;2.47;;;12.10;79.40;;;;;;4936944;29;20023;-78
2022/05/28 01:29:47;;;;;;;3.53;2.17;;;12.00;79.10;;;;;;4936730;29;20035;-78
2022/05/28 01:32:15;;;;;;;3.53;2.22;;;12.10;79.10;;;;;;4976650;28;20038;-78
2022/05/28 01:34:42;;;;;;;2.42;2.20;;;12.10;79.00;;;;;;5012238;28;20161;-78
2022/05/28 01:37:10;;;;;;;5.75;2.72;;;12.10;78.80;;;;;;5011979;28;20382;-77
2022/05/28 01:39:38;;;;;;;4.88;2.65;;;12.10;78.90;;;;;;5011881;28;20025;-78
2022/05/28 01:42:07;;;;;;;4.80;2.95;;;12.10;79.20;;;;;;5012447;28;20036;-78
2022/05/28 01:44:34;;;;;;;2.47;2.22;;;12.00;79.30;;;;;;4995784;28;20030;-78
2022/05/28 01:46:59;;;;;;;3.13;2.28;;;12.10;79.40;;;;;;5012228;28;20108;-78
2022/05/28 01:49:27;;;;;;;5.50;2.72;;;12.10;79.40;;;;;;5011353;28;20172;-78
2022/05/28 01:51:58;;;;;;;4.30;3.10;;;12.20;79.30;;;;;;5011889;28;20478;-78
2022/05/28 01:54:27;;;;;;;9.93;3.78;;;12.20;79.60;;;;;;5012195;28;20136;-77
2022/05/28 01:56:55;;;;;;;5.25;3.63;;;12.10;81.20;;;;;;5011924;28;20025;-76
2022/05/28 01:59:26;;;;;;;9.55;3.90;;;12.00;82.20;;;;;;5012160;28;20022;-77
2022/05/28 02:01:55;;;;;;;8.00;4.10;;;12.00;82.80;;;;;;5012199;28;20048;-77
2022/05/28 02:04:21;;;;;;;8.68;3.55;;;12.00;82.90;;;;;;5011885;28;20025;-77
2022/05/28 02:06:47;;;;;;;5.47;3.40;;;12.10;83.00;;;;;;5012137;28;20030;-77
2022/05/28 02:09:21;;;;;;;6.03;4.00;;;12.10;82.70;;;;;;5011948;28;20034;-77
2022/05/28 02:12:13;;;;;;;5.78;3.65;;;12.20;82.40;;;;;;5011783;28;20026;-76
2022/05/28 02:15:05;;;;;;;7.35;4.07;;;12.30;82.00;;;;;;5011986;28;20121;-76
2022/05/28 02:17:56;;;;;;;9.75;4.22;;;12.30;81.10;;;;;;5012163;28;20034;-76
2022/05/28 02:20:51;;;;;;;6.15;4.05;;;12.20;80.50;;;;;;5011893;28;20022;-79
2022/05/28 02:23:51;;;;;;;8.93;4.47;;;12.20;80.40;;;;;;5011900;28;20054;-78
2022/05/28 02:26:29;;;;;;;7.30;3.70;;;12.20;80.10;;;;;;5007194;28;20026;-76
2022/05/28 02:28:55;;;;;;;6.63;3.30;;;12.30;80.00;;;;;;5011811;28;20026;-78
2022/05/28 02:31:27;;;;;;;6.43;3.63;;;12.40;79.40;;;;;;5011862;28;20053;-78
2022/05/28 02:33:53;;;;;;;7.80;3.75;;;12.40;78.50;;;;;;5011465;28;20052;-78
2022/05/28 02:36:19;;;;;;;6.90;3.33;;;12.50;78.60;;;;;;5011628;28;20030;-78
2022/05/28 02:38:45;;;;;;;7.72;3.78;;;12.40;77.40;;;;;;5011756;28;20026;-77
2022/05/28 02:41:11;;;;;;;7.45;3.78;;;12.30;77.40;;;;;;5011541;28;20022;-81
2022/05/28 02:43:37;;;;;;;8.07;3.83;;;12.30;78.20;;;;;;5011612;28;20022;-78
2022/05/28 02:46:05;;;;;;;7.70;3.05;;;12.40;77.90;;;;;;5011863;28;20076;-79
2022/05/28 02:48:31;;;;;;;4.50;2.95;;;12.50;77.90;;;;;;5011561;28;20025;-80
2022/05/28 02:51:08;;;;;;;5.80;3.03;;;12.50;77.70;;;;;;5015308;28;20040;-78
2022/05/28 02:53:35;;;;;;;9.73;3.75;;;12.60;77.60;;;;;;5015084;28;20022;-76
2022/05/28 02:56:01;;;;;;;7.60;3.30;;;12.50;76.10;;;;;;5016257;28;20026;-76
2022/05/28 02:58:27;;;;;;;7.13;3.20;;;12.40;76.10;;;;;;5014463;28;20079;-76
2022/05/28 03:00:53;;;;;;;8.95;2.90;;;12.40;76.50;;;;;;5014917;28;20536;-77
2022/05/28 03:03:20;;;;;;;7.97;3.13;;;12.40;76.30;;;;;;5014982;28;20025;-77
2022/05/28 03:05:51;;;;;;;13.75;3.42;;;12.40;76.20;;;;;;5014879;28;20030;-76
2022/05/28 03:08:18;;;;;;;9.05;3.20;;;12.30;75.60;;;;;;5016355;28;20034;-77
2022/05/28 03:10:46;;;;;;;8.48;3.53;;;12.40;75.50;;;;;;5014945;28;20061;-79
2022/05/28 03:13:12;;;;;;;8.80;3.53;;;12.50;75.70;;;;;;5014816;28;20022;-77
2022/05/28 03:15:39;;;;;;;9.63;3.72;;;12.40;75.50;;;;;;5015074;28;20026;-77
2022/05/28 03:18:05;;;;;;;9.27;4.13;;;12.40;75.50;;;;;;5014932;28;20033;-77
2022/05/28 03:20:31;;;;;;;7.60;3.50;;;12.40;75.80;;;;;;5010782;28;20029;-76
2022/05/28 03:22:57;;;;;;;8.93;3.80;;;12.30;76.80;;;;;;5035283;28;20041;-77
2022/05/28 03:25:24;;;;;;;8.27;3.40;;;12.30;75.90;;;;;;5032207;28;20062;-76
2022/05/28 03:27:49;;;;;;;8.27;3.60;;;12.30;76.20;;;;;;5031466;28;20077;-78
2022/05/28 03:30:15;;;;;;;8.52;3.03;;;12.40;76.00;;;;;;5014800;28;20419;-77
2022/05/28 03:32:40;;;;;;;11.15;3.17;;;12.40;75.70;;;;;;5014579;28;20134;-78
2022/05/28 03:35:07;;;;;;;7.95;3.40;;;12.50;75.10;;;;;;5014377;28;20073;-77
2022/05/28 03:37:32;;;;;;;5.82;2.33;;;12.50;75.00;;;;;;5014241;28;20034;-77
2022/05/28 03:39:58;;;;;;;14.50;4.10;;;12.50;74.80;;;;;;5014458;28;20094;-77
2022/05/28 03:42:24;;;;;;;9.18;3.08;;;12.50;74.00;;;;;;5013895;28;20364;-76
2022/05/28 03:44:49;;;;;;;10.73;3.30;;;12.50;74.10;;;;;;4997410;28;20030;-77
2022/05/28 03:47:15;;;;;;;12.60;3.35;;;12.50;74.10;;;;;;5013807;28;20382;-81
2022/05/28 03:49:42;;;;;;;6.72;3.35;;;12.60;73.80;;;;;;5013872;28;20074;-77
2022/05/28 03:52:09;;;;;;;8.43;3.28;;;12.50;74.00;;;;;;5014175;28;20033;-77
2022/05/28 03:54:43;;;;;;;5.25;2.70;;;12.50;74.10;;;;;;5013962;28;20116;-77
2022/05/28 03:57:14;;;;;;;5.97;2.70;;;12.60;74.10;;;;;;5013954;28;20048;-76
2022/05/28 03:59:40;;;;;;;9.00;3.78;;;12.60;74.00;;;;;;5013728;28;20418;-77
2022/05/28 04:02:05;;;;;;;6.55;3.22;;;12.60;73.80;;;;;;4997471;28;20030;-78
2022/05/28 04:04:31;;;;;;;11.68;3.38;;;12.70;74.10;;;;;;5013735;28;20045;-77
2022/05/28 04:06:59;;;;;;;16.10;4.13;;;12.60;73.80;;;;;;5013904;28;20022;-77
2022/05/28 04:09:24;;;;;;;16.88;4.40;;;12.60;74.40;;;;;;5013423;28;20086;-76
2022/05/28 04:11:50;;;;;;;8.18;4.25;;;12.40;76.10;;;;;;5013692;28;20489;-76
2022/05/28 04:14:15;;;;;;;10.07;4.00;;;12.20;77.40;;;;;;5013568;28;20026;-76
2022/05/28 04:16:41;;;;;;;12.35;4.45;;;12.10;77.70;;;;;;5013633;28;20030;-76
2022/05/28 04:19:07;;;;;;;11.00;3.97;;;12.00;77.20;;;;;;5013556;28;20072;-77
2022/05/28 04:21:33;;;;;;;12.50;4.10;;;11.90;76.80;;;;;;4998088;28;20068;-76
2022/05/28 04:24:00;;;;;;;14.50;4.38;;;11.90;76.60;;;;;;5016043;28;20026;-76
2022/05/28 04:26:27;;;;;;;12.40;4.00;;;11.90;76.40;;;;;;5013661;28;20029;-77
2022/05/28 04:28:53;;;;;;;9.05;3.85;;;11.80;76.10;;;;;;5013239;28;20022;-77
2022/05/28 04:31:20;;;;;;;10.98;3.72;;;11.80;75.70;;;;;;5013376;28;20045;-76
2022/05/28 04:33:45;;;;;;;10.18;3.58;;;11.80;75.60;;;;;;5012926;28;20096;-77
2022/05/28 04:36:11;;;;;;;14.82;3.53;;;11.60;75.40;;;;;;4996886;28;20107;-76
2022/05/28 04:38:37;;;;;;;11.20;3.78;;;11.70;75.30;;;;;;5012842;28;20144;-76
2022/05/28 04:41:02;;;;;;;20.63;4.07;;;11.70;75.00;;;;;;5012801;28;20383;-77
2022/05/28 04:43:28;;;;;;;8.40;3.38;;;11.60;74.90;;;;;;5012842;28;20033;-76
2022/05/28 04:45:53;;;;;;;11.32;3.33;;;11.70;74.50;;;;;;5012574;28;20467;-76
2022/05/28 04:48:19;;;;;;;12.75;3.70;;;11.60;74.30;;;;;;5012958;28;20029;-76
2022/05/28 04:50:45;;;;;;;13.95;3.78;;;11.70;73.80;;;;;;5012528;28;20033;-76
2022/05/28 04:53:10;;;;;;;16.67;3.53;;;11.70;74.10;;;;;;5012663;28;20387;-75
2022/05/28 04:55:37;;;;;;;13.82;4.18;;;11.70;74.10;;;;;;5012817;28;20033;-76
2022/05/28 04:58:05;;;;;;;11.25;3.65;;;11.80;73.90;;;;;;5012717;28;20068;-76
2022/05/28 05:00:30;;;;;;;15.93;3.60;;;11.80;74.00;;;;;;5012776;28;20026;-76
2022/05/28 05:02:56;;;;;;;11.05;3.30;;;12.00;73.30;;;;;;5012780;28;20025;-76
2022/05/28 05:05:23;;;;;;;14.63;3.97;;;12.00;72.50;;;;;;5012292;28;20037;-77
2022/05/28 05:07:51;;;;;;;17.25;3.53;;;12.20;71.90;;;;;;5012430;28;20125;-76
2022/05/28 05:10:17;;;;;;;13.73;3.42;;;12.40;71.20;;;;;;5012693;28;20471;-75
2022/05/28 05:12:44;;;;;;;11.55;2.85;;;12.50;70.50;;;;;;5011681;28;20026;-77
2022/05/28 05:15:10;;;;;;;18.27;3.85;;;12.60;69.40;;;;;;5012603;28;20133;-76
2022/05/28 05:17:36;;;;;;;18.27;3.65;;;12.60;69.10;;;;;;5012717;28;20021;-82
2022/05/28 05:20:02;;;;;;;7.05;2.70;;;12.60;67.80;;;;;;5012210;28;20033;-75
2022/05/28 05:22:27;;;;;;;12.73;3.30;;;12.80;67.60;;;;;;5012406;28;20521;-76
2022/05/28 05:24:53;;;;;;;14.45;3.38;;;12.90;65.60;;;;;;5012364;28;20038;-76
2022/05/28 05:27:20;;;;;;;12.77;3.45;;;13.00;66.30;;;;;;4995953;28;20482;-81
2022/05/28 05:29:45;;;;;;;18.73;3.58;;;13.00;64.90;;;;;;5012107;28;20053;-76
2022/05/28 05:32:12;;;;;;;14.95;3.42;;;12.90;64.90;;;;;;5012150;28;20504;-76
2022/05/28 05:34:38;;;;;;;14.40;3.50;;;12.70;65.20;;;;;;5012015;28;20090;-77
2022/05/28 05:37:05;;;;;;;33.42;5.60;;;12.60;65.10;;;;;;5013384;28;20103;-75
2022/05/28 05:39:31;;;;;;;18.35;3.33;;;12.70;75.10;;;;;;5011909;28;20026;-73
2022/05/28 05:41:56;;;;;;;16.38;3.35;;;13.30;76.50;;;;;;5012213;28;20156;-73
2022/05/28 05:44:22;;;;;;;9.68;2.63;;;13.80;68.70;;;;;;5012058;28;20033;-72
2022/05/28 05:46:48;;;;;;;10.00;2.45;;;14.20;64.70;;;;;;4995846;28;20065;-74
2022/05/28 05:49:14;;;;;;;10.95;3.25;;;14.80;61.50;;;;;;5012138;28;20108;-74
2022/05/28 05:51:47;;;;;;;15.95;3.28;;;15.10;58.30;;;;;;5011643;28;20053;-73
2022/05/28 05:54:14;;;;;;;7.90;2.35;;;15.40;56.90;;;;;;5012356;28;20022;-73
2022/05/28 05:56:42;;;;;;;10.07;2.65;;;15.80;54.60;;;;;;5018807;28;20013;-82
2022/05/28 05:59:09;;;;;;;9.68;2.60;;;15.90;50.70;;;;;;5033818;28;20022;-82
2022/05/28 06:01:35;;;;;;;11.07;2.83;;;15.70;50.70;;;;;;5020625;28;20026;-82
2022/05/28 06:04:00;;;;;;;15.65;3.22;;;15.20;50.30;;;;;;5036714;28;20018;-82
2022/05/28 06:06:26;;;;;;;14.70;3.70;;;14.40;52.50;;;;;;5036742;28;20050;-80
2022/05/28 06:08:52;;;;;;;11.15;3.25;;;13.70;55.10;;;;;;5034626;28;20049;-80
2022/05/28 06:11:18;;;;;;;14.43;3.33;;;13.50;56.40;;;;;;5014179;28;20038;-80
2022/05/28 06:13:43;;;;;;;11.30;2.92;;;13.50;56.90;;;;;;5011973;28;20391;-80
2022/05/28 06:16:09;;;;;;;13.38;3.22;;;13.30;57.70;;;;;;5011852;28;20033;-80
2022/05/28 06:18:43;;;;;;;14.10;4.22;;;13.20;57.70;;;;;;5011852;28;20471;-80
2022/05/28 06:21:10;;;;;;;14.07;3.38;;;13.10;58.00;;;;;;5011471;28;20030;-81
2022/05/28 06:23:37;;;;;;;9.20;2.90;;;13.00;57.90;;;;;;5013558;28;20022;-81
2022/05/28 06:26:04;;;;;;;12.27;2.72;;;13.10;58.30;;;;;;5015454;28;20487;-81
2022/05/28 06:28:30;;;;;;;15.18;3.50;;;13.20;57.80;;;;;;5015572;28;20030;-81
2022/05/28 06:31:03;;;;;;;14.30;2.92;;;13.20;57.80;;;;;;5015338;28;20088;-81
2022/05/28 06:33:28;;;;;;;13.95;3.58;;;13.30;57.60;;;;;;5014889;28;20510;-81
2022/05/28 06:35:59;;;;;;;9.13;2.95;;;13.40;57.00;;;;;;4998828;28;20062;-81
2022/05/28 06:38:25;;;;;;;16.05;3.00;;;13.40;56.30;;;;;;4999104;28;20065;-81
2022/05/28 06:40:51;;;;;;;16.02;3.20;;;13.50;56.40;;;;;;5015297;28;20030;-81
2022/05/28 06:43:18;;;;;;;9.38;2.70;;;13.70;56.10;;;;;;4998502;28;20026;-81
2022/05/28 06:45:44;;;;;;;10.68;2.78;;;13.70;54.50;;;;;;4998973;28;20060;-81
2022/05/28 06:48:10;;;;;;;12.88;2.53;;;13.60;53.60;;;;;;5014841;28;20018;-80
2022/05/28 06:53:20;;;;;;;11.70;2.80;;;13.30;53.20;;;;;;5016583;28;20037;-80
2022/05/28 06:55:47;;;;;;;13.32;2.72;;;13.40;53.70;;;;;;5014907;28;20032;-80
2022/05/28 06:58:14;;;;;;;13.98;2.30;;;13.40;54.00;;;;;;5016040;28;20021;-80
2022/05/28 07:00:41;;;;;;;12.32;2.10;;;13.60;53.60;;;;;;5014620;28;20026;-80
2022/05/28 07:03:16;;;;;;;11.95;3.17;;;13.70;50.40;;;;;;5014957;28;20050;-80
2022/05/28 07:05:42;;;;;;;9.45;2.80;;;13.90;50.90;;;;;;5003407;28;20034;-81
2022/05/28 07:08:11;;;;;;;14.13;4.75;;;14.20;51.10;;;;;;5016002;28;20061;-80
2022/05/28 07:10:44;;;;;;;6.50;1.42;;;14.40;50.60;;;;;;5014794;28;20037;-81
2022/05/28 07:13:10;;;;;;;4.63;1.50;;;14.30;42.80;;;;;;5014653;28;20022;-81
2022/05/28 07:15:36;;;;;;;6.68;1.50;;;14.10;41.40;;;;;;5014589;28;20092;-81
2022/05/28 07:18:03;;;;;;;8.52;1.48;;;13.90;42.70;;;;;;4998221;28;20022;-80
2022/05/28 07:20:29;;;;;;;6.90;1.55;;;13.60;44.00;;;;;;4997730;28;20500;-80
2022/05/28 07:22:54;;;;;;;5.30;1.35;;;13.50;46.10;;;;;;4997941;28;20129;-81
2022/05/28 07:25:20;;;;;;;7.18;1.25;;;13.60;45.70;;;;;;5015157;28;20467;-80
2022/05/28 07:27:46;;;;;;;8.30;1.50;;;13.80;45.60;;;;;;5015201;28;20032;-80
2022/05/28 07:30:14;;;;;;;7.35;1.92;;;14.00;45.80;;;;;;5013640;28;20025;-81
2022/05/28 07:32:40;;;;;;;5.72;1.73;;;14.10;44.90;;;;;;5014029;28;20026;-81
2022/05/28 07:35:07;;;;;;;7.13;2.13;;;14.20;45.80;;;;;;5012965;28;20046;-82
2022/05/28 07:37:34;;;;;;;11.82;2.38;;;14.50;46.40;;;;;;5013326;28;20037;-82
2022/05/28 07:39:59;;;;;;;8.73;1.95;;;14.60;46.10;;;;;;5013219;28;20034;-82
2022/05/28 07:42:27;;;;;;;12.40;2.10;;;14.70;46.20;;;;;;5013796;28;20067;-82
2022/05/28 07:44:54;;;;;;;8.57;1.95;;;14.80;46.80;;;;;;5013304;28;20413;-82
2022/05/28 07:47:20;;;;;;;4.70;1.70;;;14.80;45.10;;;;;;5013574;28;20053;-81
2022/05/28 07:49:46;;;;;;;7.07;1.58;;;14.90;44.70;;;;;;5013386;28;20100;-81
2022/05/28 07:52:11;;;;;;;7.32;1.92;;;14.90;44.90;;;;;;5013484;28;20021;-82
2022/05/28 07:54:37;;;;;;;6.57;1.50;;;15.00;44.50;;;;;;5014457;28;20231;-81
2022/05/28 07:57:04;;;;;;;6.30;1.90;;;15.00;45.00;;;;;;5013252;28;20409;-82
2022/05/28 07:59:31;;;;;;;8.80;2.20;;;15.10;45.40;;;;;;5013112;28;20500;-82
2022/05/28 08:01:56;;;;;;;9.27;2.78;;;15.20;45.90;;;;;;5013077;28;20030;-82
2022/05/28 08:04:22;;;;;;;11.73;2.28;;;15.50;45.00;;;;;;5012812;28;20084;-82
2022/05/28 08:06:48;;;;;;;7.80;1.98;;;15.70;44.40;;;;;;5013456;28;20061;-82
2022/05/28 08:09:13;;;;;;;5.72;1.92;;;15.90;44.10;;;;;;5013194;28;20100;-82
2022/05/28 08:11:40;;;;;;;9.05;1.92;;;16.00;42.20;;;;;;5013255;28;20120;-82
2022/05/28 08:14:08;;;;;;;7.03;1.88;;;16.00;42.40;;;;;;5013300;28;20050;-82
2022/05/28 08:16:35;;;;;;;4.18;1.83;;;15.10;42.70;;;;;;5013627;28;20108;-81
2022/05/28 08:19:01;;;;;;;5.70;1.55;;;14.60;43.90;;;;;;4997721;28;20030;-81
2022/05/28 08:24:13;;;;;;;2.85;0.82;;;15.20;43.90;;;;;;5015799;28;20114;-81
2022/05/28 08:26:40;;;;;;;4.38;0.98;;;15.40;36.90;;;;;;5027771;28;20029;-80
2022/05/28 08:29:06;;;;;;;7.70;1.20;;;15.30;35.10;;;;;;5036114;28;20045;-81
2022/05/28 08:31:32;;;;;;;3.72;1.02;;;15.40;35.20;;;;;;5035750;28;20025;-81
2022/05/28 08:34:03;;;;;;;5.40;1.00;;;15.30;35.00;;;;;;5010110;28;20100;-81
2022/05/28 08:36:30;;;;;;;5.88;1.30;;;15.30;36.30;;;;;;4996790;28;20061;-81
2022/05/28 08:38:56;;;;;;;3.15;1.00;;;15.00;37.80;;;;;;5013077;28;20057;-81
2022/05/28 08:41:32;;;;;;;3.92;1.00;;;15.20;38.30;;;;;;5012805;28;20443;-81
2022/05/28 08:44:02;;;;;;;3.65;1.20;;;15.10;37.90;;;;;;5012778;28;20668;-81
2022/05/28 08:46:34;;;;;;;3.15;1.25;;;15.10;39.20;;;;;;5011681;28;20137;-81
2022/05/28 08:49:01;;;;;;;4.97;1.55;;;15.20;38.30;;;;;;5012675;28;20452;-81
2022/05/28 08:52:00;;;;;;;8.60;2.00;;;15.50;38.50;;;;;;5013509;28;20049;-81
2022/05/28 08:54:38;;;;;;;6.20;1.55;;;15.80;37.80;;;;;;5012381;28;20498;-81
2022/05/28 08:57:17;;;;;;;4.97;1.00;;;16.00;38.00;;;;;;5012406;28;20035;-81
2022/05/28 09:00:07;;;;;;;5.30;1.20;;;16.30;37.30;;;;;;5011903;28;20537;-81
2022/05/28 09:02:43;;;;;;;5.00;1.40;;;16.60;36.80;;;;;;5011999;28;20030;-81
2022/05/28 09:05:53;;;;;;;5.35;1.30;;;16.70;35.60;;;;;;5012456;28;20470;-82
2022/05/28 09:08:43;;;;;;;3.33;1.02;;;16.80;36.30;;;;;;4999389;28;20034;-82
2022/05/28 09:11:35;;;;;;;3.78;1.02;;;16.80;37.50;;;;;;5011424;28;20062;-81
2022/05/28 09:14:24;;;;;;;4.05;1.20;;;16.70;33.60;;;;;;5011990;28;20022;-82
2022/05/28 09:16:52;;;;;;;4.20;0.90;;;16.30;33.30;;;;;;5012225;28;20029;-82
2022/05/28 09:19:21;;;;;;;3.72;1.00;;;16.00;31.80;;;;;;5012107;28;20047;-82
2022/05/28 09:21:50;;;;;;;3.90;0.70;;;15.90;32.30;;;;;;5012056;28;20025;-81
2022/05/28 09:24:28;;;;;;;3.88;1.05;;;15.70;31.40;;;;;;5011949;28;20490;-81
2022/05/28 09:26:59;;;;;;;6.00;1.05;;;15.70;32.60;;;;;;5009910;28;20038;-81
2022/05/28 09:29:45;;;;;;;4.00;0.90;;;15.90;31.30;;;;;;5012211;28;20025;-81
2022/05/28 09:32:49;;;;;;;3.80;0.80;;;16.00;31.40;;;;;;5012042;28;20030;-81
2022/05/28 09:35:42;;;;;;;3.08;0.90;;;16.30;34.20;;;;;;5012738;28;20571;-81
2022/05/28 09:38:33;;;;;;;4.05;1.02;;;16.70;35.70;;;;;;5011885;28;20037;-81
2022/05/28 09:41:23;;;;;;;3.55;0.90;;;17.20;34.40;;;;;;5012344;28;20383;-81
2022/05/28 09:44:22;;;;;;;5.93;0.80;;;17.60;34.30;;;;;;5012630;28;20029;-81
2022/05/28 09:46:48;;;;;;;4.35;0.80;;;16.90;30.40;;;;;;5011905;28;20031;-80
2022/05/28 09:49:24;;;;;;;3.85;0.75;;;16.90;30.40;;;;;;5011731;28;20022;-80
2022/05/28 09:52:04;;;;;;;3.15;0.75;;;16.60;31.00;;;;;;5011971;28;20107;-81
2022/05/28 09:54:33;;;;;;;2.42;0.60;;;16.50;30.20;;;;;;5011783;28;20570;-81
2022/05/28 09:57:10;;;;;;;3.83;1.02;;;16.70;30.20;;;;;;5011986;28;20046;-81
2022/05/28 09:59:55;;;;;;;3.95;1.10;;;17.10;30.30;;;;;;5015387;28;20111;-81
2022/05/28 10:02:24;;;;;;;4.43;0.70;;;17.40;29.00;;;;;;5016022;28;20026;-81
2022/05/28 10:05:16;;;;;;;3.38;0.70;;;17.80;28.70;;;;;;5016940;28;20037;-81
2022/05/28 10:07:50;;;;;;;3.65;0.88;;;17.70;27.60;;;;;;5015689;28;20091;-81
2022/05/28 10:10:35;;;;;;;2.70;0.90;;;18.00;27.60;;;;;;5015556;28;20553;-81
2022/05/28 10:13:14;;;;;;;4.40;1.02;;;18.00;26.80;;;;;;4999231;28;20364;-81
2022/05/28 10:15:46;;;;;;;2.47;0.90;;;17.60;29.90;;;;;;5015280;28;20501;-81
2022/05/28 10:18:21;;;;;;;3.97;0.77;;;18.00;30.50;;;;;;5015488;28;20073;-80
2022/05/28 10:21:11;;;;;;;3.40;1.10;;;18.60;29.80;;;;;;5015658;28;20109;-81
2022/05/28 10:23:43;;;;;;;3.42;1.20;;;18.90;27.40;;;;;;5016204;28;20038;-81
2022/05/28 10:26:30;;;;;;;4.10;1.33;;;19.30;27.00;;;;;;4999348;28;20471;-83
2022/05/28 10:29:00;;;;;;;3.35;0.63;;;19.40;26.10;;;;;;5016535;28;20030;-81
2022/05/28 10:31:37;;;;;;;2.50;0.75;;;18.90;25.40;;;;;;5002537;28;20092;-80
2022/05/28 10:34:03;;;;;;;4.13;0.60;;;18.60;25.80;;;;;;5015256;28;20022;-81
2022/05/28 10:36:33;;;;;;;3.15;0.80;;;18.80;25.70;;;;;;5015493;28;20494;-81
2022/05/28 10:39:09;;;;;;;2.92;0.77;;;18.70;27.60;;;;;;5016234;28;20470;-81
2022/05/28 10:41:35;;;;;;;4.97;0.95;;;19.00;27.10;;;;;;5014786;28;20372;-81
2022/05/28 10:44:01;;;;;;;3.65;0.98;;;18.60;28.90;;;;;;4999212;28;20088;-81
2022/05/28 10:46:35;;;;;;;4.15;1.33;;;18.30;29.00;;;;;;5015034;28;20022;-81
2022/05/28 10:49:13;;;;;;;4.87;0.80;;;18.60;29.50;;;;;;5014653;28;20038;-82
2022/05/28 10:51:58;;;;;;;3.95;1.27;;;18.80;28.70;;;;;;5014564;28;20491;-81
2022/05/28 10:54:49;;;;;;;6.17;1.10;;;19.10;29.60;;;;;;5015091;28;20076;-81
2022/05/28 10:57:51;;;;;;;4.38;1.98;;;19.20;28.10;;;;;;5014871;28;20030;-81
2022/05/28 11:00:26;;;;;;;4.35;1.20;;;19.60;27.00;;;;;;5014586;28;20053;-81
2022/05/28 11:03:22;;;;;;;2.97;1.10;;;20.00;25.80;;;;;;5014444;28;20026;-81
2022/05/28 11:05:57;;;;;;;3.78;0.95;;;20.30;25.90;;;;;;5014540;28;20080;-80
2022/05/28 11:09:02;;;;;;;3.40;0.85;;;19.80;25.20;;;;;;5015844;28;20025;-80
2022/05/28 11:11:59;;;;;;;1.92;0.80;;;18.90;26.30;;;;;;5013301;28;20068;-80
2022/05/28 11:14:53;;;;;;;3.83;1.63;;;19.20;27.60;;;;;;5014661;28;20030;-81
2022/05/28 11:17:48;;;;;;;3.83;1.17;;;19.70;28.80;;;;;;5014791;28;20028;-82
2022/05/28 11:20:32;;;;;;;1.98;0.55;;;20.30;26.10;;;;;;5019748;28;20010;-81
2022/05/28 11:23:16;;;;;;;5.65;0.95;;;20.60;24.10;;;;;;5038166;28;20030;-81
2022/05/28 11:25:54;;;;;;;6.63;1.10;;;20.80;24.50;;;;;;5035687;28;20026;-80
2022/05/28 11:28:50;;;;;;;2.00;0.90;;;20.80;24.70;;;;;;5027813;28;20033;-81
2022/05/28 11:31:56;;;;;;;3.60;0.88;;;21.00;24.70;;;;;;5013917;28;20544;-81
2022/05/28 11:34:44;;;;;;;2.38;0.93;;;20.90;23.00;;;;;;5013350;28;20034;-81
2022/05/28 11:37:19;;;;;;;2.80;1.13;;;21.10;22.80;;;;;;5013631;28;20100;-82
2022/05/28 11:40:07;;;;;;;3.13;0.85;;;21.20;23.90;;;;;;5014191;28;20048;-82
2022/05/28 11:43:00;;;;;;;2.80;0.85;;;21.30;24.20;;;;;;5013942;28;20368;-82
2022/05/28 11:46:03;;;;;;;2.67;0.88;;;21.50;23.50;;;;;;4999894;28;20026;-82
2022/05/28 11:51:48;;;;;;;2.67;0.77;;;20.90;22.30;;;;;;5014777;28;20113;-82
2022/05/28 11:54:22;;;;;;;3.70;1.23;;;20.80;23.30;;;;;;5013649;28;20463;-82
2022/05/28 11:56:51;;;;;;;1.25;0.73;;;21.00;24.40;;;;;;4997826;28;20034;-81
2022/05/28 11:59:26;;;;;;;1.92;0.68;;;21.10;23.80;;;;;;5013648;28;20029;-82
2022/05/28 12:02:02;;;;;;;3.40;0.93;;;21.10;23.50;;;;;;4997608;28;20486;-81
2022/05/28 12:04:30;;;;;;;;;;;21.30;22.70;;;;;;5013626;28;20114;-80
2022/05/28 12:07:02;;;;;;;2.95;0.70;;;20.60;22.30;;;;;;5013447;28;20003;-81
2022/05/28 12:09:34;;;;;;;3.78;0.95;;;20.30;24.30;;;;;;5013737;28;20545;-81
2022/05/28 12:12:05;;;;;;;2.13;0.70;;;20.20;25.20;;;;;;5013278;28;20034;-81
2022/05/28 12:14:35;;;;;;;2.38;0.85;;;20.40;26.60;;;;;;5014705;28;20097;-81
2022/05/28 12:17:26;;;;;;;4.00;0.80;;;20.70;26.40;;;;;;5012523;28;20402;-80
2022/05/28 12:19:59;;;;;;;2.58;0.80;;;20.80;25.70;;;;;;5012856;28;20034;-81
2022/05/28 12:22:39;;;;;;;3.25;0.95;;;20.70;25.10;;;;;;5013052;28;20030;-81
2022/05/28 12:25:11;;;;;;;4.72;0.93;;;20.60;25.30;;;;;;5014288;28;20029;-81
2022/05/28 12:27:55;;;;;;;2.30;1.33;;;20.50;26.10;;;;;;5012973;28;20021;-81
2022/05/28 12:30:37;;;;;;;1.77;0.93;;;20.60;26.80;;;;;;5012741;28;20034;-81
2022/05/28 12:33:19;;;;;;;3.30;0.60;;;20.80;26.30;;;;;;5013165;28;20471;-80
2022/05/28 12:35:45;;;;;;;2.85;0.80;;;20.90;25.90;;;;;;5014233;28;20132;-81
2022/05/28 12:38:38;;;;;;;2.85;0.80;;;21.00;26.20;;;;;;5013241;28;20487;-81
2022/05/28 12:41:14;;;;;;;2.70;1.00;;;21.20;25.40;;;;;;5014440;28;20085;-81
2022/05/28 12:43:51;;;;;;;2.75;0.93;;;21.50;26.00;;;;;;5012724;28;20037;-81
2022/05/28 12:46:18;;;;;;;2.95;1.13;;;21.70;26.40;;;;;;5012688;28;20030;-81
2022/05/28 12:48:44;;;;;;;2.72;0.90;;;21.80;26.10;;;;;;5012421;28;20026;-81
2022/05/28 12:51:16;;;;;;;2.92;0.73;;;21.80;25.00;;;;;;5012985;28;20030;-81
2022/05/28 12:53:55;;;;;;;7.05;1.02;;;21.80;24.40;;;;;;5012569;28;20032;-81
2022/05/28 12:56:47;;;;;;;2.58;0.68;;;22.20;23.90;;;;;;5012511;28;20033;-80
2022/05/28 12:59:22;;;;;;;1.63;0.63;;;22.20;23.20;;;;;;5011944;28;20038;-82
2022/05/28 13:01:57;;;;;;;4.07;0.90;;;22.40;24.00;;;;;;5012841;28;20022;-82
2022/05/28 13:04:27;;;;;;;3.88;0.88;;;21.30;23.80;;;;;;5006387;28;20034;-82
2022/05/28 13:07:00;;;;;;;1.85;0.73;;;21.30;26.00;;;;;;5012827;28;20026;-82
2022/05/28 13:09:31;;;;;;;5.60;0.88;;;21.30;25.20;;;;;;5012922;28;20482;-82
2022/05/28 13:12:25;;;;;;;4.05;1.15;;;21.20;25.50;;;;;;5014314;28;20041;-84
2022/05/28 13:15:11;;;;;;;5.05;0.88;;;21.10;24.60;;;;;;5013885;28;20018;-84
2022/05/28 13:18:02;;;;;;;4.90;0.80;;;21.20;24.40;;;;;;5012513;28;20022;-84
2022/05/28 13:21:10;;;;;;;2.85;0.70;;;21.60;24.80;;;;;;5012702;28;20099;-85